createdAt,value
2024-02-19T00:00:09.396Z,0.00
2024-02-19T00:01:09.581Z,0.00
2024-02-19T00:02:09.369Z,0.00
2024-02-19T00:03:09.375Z,0.00
2024-02-19T00:04:09.436Z,0.00
2024-02-19T00:05:09.496Z,0.00
2024-02-19T00:06:09.328Z,0.00
2024-02-19T00:07:09.394Z,0.00
2024-02-19T00:08:09.410Z,0.00
2024-02-19T00:09:09.295Z,0.00
2024-02-19T00:10:09.367Z,0.00
2024-02-19T00:11:09.304Z,0.00
2024-02-19T00:12:09.281Z,0.00
2024-02-19T00:13:09.283Z,0.00
2024-02-19T00:14:09.248Z,0.00
2024-02-19T00:15:09.231Z,0.00
2024-02-19T00:16:09.259Z,0.00
2024-02-19T00:17:09.265Z,0.00
2024-02-19T00:18:09.298Z,0.00
2024-02-19T00:19:09.244Z,0.00
2024-02-19T00:20:09.173Z,0.00
2024-02-19T00:21:09.162Z,0.00
2024-02-19T00:22:09.170Z,0.00
2024-02-19T00:23:09.140Z,0.00
2024-02-19T00:24:09.133Z,0.00
2024-02-19T00:25:09.141Z,0.00
2024-02-19T00:26:09.124Z,0.00
2024-02-19T00:27:09.111Z,0.00
2024-02-19T00:28:09.124Z,0.00
2024-02-19T00:29:09.072Z,0.00
2024-02-19T00:30:09.062Z,0.00
2024-02-19T00:31:09.094Z,0.00
2024-02-19T00:32:09.043Z,0.00
2024-02-19T00:33:09.091Z,0.00
2024-02-19T00:34:09.207Z,0.00
2024-02-19T00:35:09.001Z,0.00
2024-02-19T00:36:08.994Z,0.00
2024-02-19T00:37:09.032Z,0.00
2024-02-19T00:38:08.976Z,0.00
2024-02-19T00:39:08.967Z,0.00
2024-02-19T00:40:09.004Z,0.00
2024-02-19T00:41:08.933Z,0.00
2024-02-19T00:42:08.949Z,0.00
2024-02-19T00:43:08.972Z,0.00
2024-02-19T00:44:08.909Z,0.00
2024-02-19T00:45:08.899Z,0.00
2024-02-19T00:46:08.910Z,0.00
2024-02-19T00:47:08.871Z,0.00
2024-02-19T00:48:08.938Z,0.00
2024-02-19T00:49:09.012Z,0.00
2024-02-19T00:50:08.891Z,0.00
2024-02-19T00:51:08.824Z,0.00
2024-02-19T00:52:08.863Z,0.00
2024-02-19T00:53:08.803Z,0.00
2024-02-19T00:54:08.806Z,0.00
2024-02-19T00:55:09.026Z,0.00
2024-02-19T00:56:08.767Z,0.00
2024-02-19T00:57:08.806Z,0.00
2024-02-19T00:58:08.826Z,0.00
2024-02-19T00:59:08.737Z,0.00
2024-02-19T01:00:08.737Z,0.00
2024-02-19T01:01:08.832Z,0.00
2024-02-19T01:02:08.788Z,0.00
2024-02-19T01:03:08.694Z,0.00
2024-02-19T01:04:08.781Z,0.00
2024-02-19T01:05:08.704Z,0.00
2024-02-19T01:06:08.740Z,0.00
2024-02-19T01:07:08.778Z,0.00
2024-02-19T01:08:08.642Z,0.00
2024-02-19T01:09:08.631Z,0.00
2024-02-19T01:10:08.673Z,0.00
2024-02-19T01:11:08.657Z,0.00
2024-02-19T01:12:08.593Z,0.00
2024-02-19T01:13:08.663Z,0.00
2024-02-19T01:14:08.597Z,0.00
2024-02-19T01:15:08.575Z,0.00
2024-02-19T01:16:08.601Z,0.00
2024-02-19T01:17:08.545Z,0.00
2024-02-19T01:18:08.564Z,0.00
2024-02-19T01:19:08.646Z,0.00
2024-02-19T01:20:08.504Z,0.00
2024-02-19T01:21:08.499Z,0.00
2024-02-19T01:22:08.550Z,0.00
2024-02-19T01:23:08.509Z,0.00
2024-02-19T01:24:08.465Z,0.00
2024-02-19T01:25:08.489Z,0.00
2024-02-19T01:26:08.435Z,0.00
2024-02-19T01:27:08.439Z,0.00
2024-02-19T01:28:08.495Z,0.00
2024-02-19T01:29:08.428Z,0.00
2024-02-19T01:30:08.417Z,0.00
2024-02-19T01:31:08.443Z,0.00
2024-02-19T01:32:08.387Z,0.00
2024-02-19T01:33:08.393Z,0.00
2024-02-19T01:34:08.433Z,0.00
2024-02-19T01:35:08.489Z,0.00
2024-02-19T01:36:08.331Z,0.00
2024-02-19T01:37:08.462Z,0.00
2024-02-19T01:38:08.303Z,0.00
2024-02-19T01:39:08.317Z,0.00
2024-02-19T01:40:08.279Z,0.00
2024-02-19T01:41:08.271Z,0.00
2024-02-19T01:42:08.261Z,0.00
2024-02-19T01:43:08.353Z,0.00
2024-02-19T01:44:08.235Z,0.00
2024-02-19T01:45:08.410Z,0.00
2024-02-19T01:46:08.277Z,0.00
2024-02-19T01:47:08.205Z,0.00
2024-02-19T01:48:08.284Z,0.00
2024-02-19T01:49:08.209Z,0.00
2024-02-19T01:50:08.181Z,0.00
2024-02-19T01:51:08.163Z,0.00
2024-02-19T01:52:08.270Z,0.00
2024-02-19T01:53:08.166Z,0.00
2024-02-19T01:54:08.180Z,0.00
2024-02-19T01:55:08.152Z,0.00
2024-02-19T01:56:08.117Z,0.00
2024-02-19T01:57:08.093Z,0.00
2024-02-19T01:58:08.333Z,0.00
2024-02-19T01:59:08.070Z,0.00
2024-02-19T02:00:08.087Z,0.00
2024-02-19T02:01:08.172Z,0.00
2024-02-19T02:02:08.058Z,0.00
2024-02-19T02:03:08.073Z,0.00
2024-02-19T02:04:08.057Z,0.00
2024-02-19T02:05:08.016Z,0.00
2024-02-19T02:06:08.046Z,0.00
2024-02-19T02:07:08.052Z,0.00
2024-02-19T02:08:07.969Z,0.00
2024-02-19T02:09:07.961Z,0.00
2024-02-19T02:10:08.026Z,0.00
2024-02-19T02:11:07.948Z,0.00
2024-02-19T02:12:07.931Z,0.00
2024-02-19T02:13:07.944Z,0.00
2024-02-19T02:14:07.904Z,0.00
2024-02-19T02:15:07.886Z,0.00
2024-02-19T02:16:07.918Z,0.00
2024-02-19T02:17:07.869Z,0.00
2024-02-19T02:18:08.005Z,0.00
2024-02-19T02:19:07.941Z,0.00
2024-02-19T02:20:07.930Z,0.00
2024-02-19T02:21:07.838Z,0.00
2024-02-19T02:22:07.864Z,0.00
2024-02-19T02:23:07.801Z,0.00
2024-02-19T02:24:07.796Z,0.00
2024-02-19T02:25:07.806Z,0.00
2024-02-19T02:26:07.775Z,0.00
2024-02-19T02:27:07.771Z,0.00
2024-02-19T02:28:07.794Z,0.00
2024-02-19T02:29:07.744Z,0.00
2024-02-19T02:30:07.722Z,0.00
2024-02-19T02:31:07.746Z,0.00
2024-02-19T02:32:07.722Z,0.00
2024-02-19T02:33:07.752Z,0.00
2024-02-19T02:34:08.001Z,0.00
2024-02-19T02:35:07.739Z,0.00
2024-02-19T02:36:07.664Z,0.00
2024-02-19T02:37:07.665Z,0.00
2024-02-19T02:38:07.644Z,0.00
2024-02-19T02:39:07.621Z,0.00
2024-02-19T02:40:07.671Z,0.00
2024-02-19T02:41:07.607Z,0.00
2024-02-19T02:42:07.588Z,0.00
2024-02-19T02:43:07.636Z,0.00
2024-02-19T02:44:07.565Z,0.00
2024-02-19T02:45:07.561Z,0.00
2024-02-19T02:46:07.577Z,0.00
2024-02-19T02:47:07.541Z,0.00
2024-02-19T02:48:07.591Z,0.00
2024-02-19T02:49:07.686Z,0.00
2024-02-19T02:50:07.639Z,0.00
2024-02-19T02:51:07.499Z,0.00
2024-02-19T02:52:07.592Z,0.00
2024-02-19T02:53:07.475Z,0.00
2024-02-19T02:54:07.467Z,0.00
2024-02-19T02:55:07.477Z,0.00
2024-02-19T02:56:07.435Z,0.00
2024-02-19T02:57:07.433Z,0.00
2024-02-19T02:58:07.451Z,0.00
2024-02-19T02:59:07.453Z,0.00
2024-02-19T03:00:07.393Z,0.00
2024-02-19T03:01:07.446Z,0.00
2024-02-19T03:02:07.401Z,0.00
2024-02-19T03:03:07.356Z,0.00
2024-02-19T03:04:07.426Z,0.00
2024-02-19T03:05:07.449Z,0.00
2024-02-19T03:06:07.349Z,0.00
2024-02-19T03:07:07.390Z,0.00
2024-02-19T03:08:07.358Z,0.00
2024-02-19T03:09:07.349Z,0.00
2024-02-19T03:10:07.305Z,0.00
2024-02-19T03:11:07.304Z,0.00
2024-02-19T03:12:07.262Z,0.00
2024-02-19T03:13:07.297Z,0.00
2024-02-19T03:14:07.235Z,0.00
2024-02-19T03:15:07.225Z,0.00
2024-02-19T03:16:07.228Z,0.00
2024-02-19T03:17:07.204Z,0.00
2024-02-19T03:18:07.402Z,0.00
2024-02-19T03:19:07.244Z,0.00
2024-02-19T03:20:07.176Z,0.00
2024-02-19T03:21:07.175Z,0.00
2024-02-19T03:22:07.183Z,0.00
2024-02-19T03:23:07.138Z,0.00
2024-02-19T03:24:07.120Z,0.00
2024-02-19T03:25:07.136Z,0.00
2024-02-19T03:26:07.115Z,0.00
2024-02-19T03:27:07.100Z,0.00
2024-02-19T03:28:07.151Z,0.00
2024-02-19T03:29:07.080Z,0.00
2024-02-19T03:30:07.064Z,0.00
2024-02-19T03:31:07.071Z,0.00
2024-02-19T03:32:07.045Z,0.00
2024-02-19T03:33:07.100Z,0.00
2024-02-19T03:34:07.087Z,0.00
2024-02-19T03:35:07.050Z,0.00
2024-02-19T03:36:06.996Z,0.00
2024-02-19T03:37:07.014Z,0.00
2024-02-19T03:38:07.006Z,0.00
2024-02-19T03:39:06.959Z,0.00
2024-02-19T03:40:06.985Z,0.00
2024-02-19T03:41:06.930Z,0.00
2024-02-19T03:42:06.986Z,0.00
2024-02-19T03:43:07.004Z,0.00
2024-02-19T03:44:06.904Z,0.00
2024-02-19T03:45:06.889Z,0.00
2024-02-19T03:46:06.949Z,0.00
2024-02-19T03:47:06.866Z,0.00
2024-02-19T03:48:07.018Z,0.00
2024-02-19T03:49:06.904Z,0.00
2024-02-19T03:50:06.847Z,0.00
2024-02-19T03:51:06.823Z,0.00
2024-02-19T03:52:06.836Z,0.00
2024-02-19T03:53:06.802Z,0.00
2024-02-19T03:54:06.868Z,0.00
2024-02-19T03:55:06.799Z,0.00
2024-02-19T03:56:06.769Z,0.00
2024-02-19T03:57:06.754Z,0.00
2024-02-19T03:58:06.805Z,0.00
2024-02-19T03:59:06.738Z,0.00
2024-02-19T04:00:06.721Z,0.00
2024-02-19T04:01:08.611Z,0.00
2024-02-19T04:02:06.759Z,0.00
2024-02-19T04:03:06.696Z,0.00
2024-02-19T04:04:06.775Z,0.00
2024-02-19T04:05:06.789Z,0.00
2024-02-19T04:06:06.732Z,0.00
2024-02-19T04:07:06.755Z,0.00
2024-02-19T04:08:09.769Z,0.00
2024-02-19T04:09:06.619Z,0.00
2024-02-19T04:10:06.756Z,0.00
2024-02-19T04:11:06.597Z,0.00
2024-02-19T04:12:06.594Z,0.00
2024-02-19T04:13:06.632Z,0.00
2024-02-19T04:14:06.569Z,0.00
2024-02-19T04:15:06.552Z,0.00
2024-02-19T04:16:06.565Z,0.00
2024-02-19T04:17:07.095Z,0.00
2024-02-19T04:18:06.630Z,0.00
2024-02-19T04:19:06.642Z,0.00
2024-02-19T04:20:06.506Z,0.00
2024-02-19T04:21:06.502Z,0.00
2024-02-19T04:22:06.503Z,0.00
2024-02-19T04:23:06.466Z,0.00
2024-02-19T04:24:06.458Z,0.00
2024-02-19T04:25:06.587Z,0.00
2024-02-19T04:26:06.456Z,0.00
2024-02-19T04:27:06.420Z,0.00
2024-02-19T04:28:06.489Z,0.00
2024-02-19T04:29:06.412Z,0.00
2024-02-19T04:31:06.423Z,0.00
2024-02-19T04:32:06.370Z,0.00
2024-02-19T04:33:06.794Z,0.00
2024-02-19T04:34:06.494Z,0.00
2024-02-19T04:35:06.386Z,0.00
2024-02-19T04:36:06.338Z,0.00
2024-02-19T04:37:06.337Z,0.00
2024-02-19T04:38:06.357Z,0.00
2024-02-19T04:39:06.284Z,0.00
2024-02-19T04:40:06.342Z,0.00
2024-02-19T04:41:06.265Z,0.00
2024-02-19T04:42:06.279Z,0.00
2024-02-19T04:43:06.262Z,0.00
2024-02-19T04:44:06.230Z,0.00
2024-02-19T04:45:06.221Z,0.00
2024-02-19T04:46:06.296Z,0.00
2024-02-19T04:47:06.197Z,0.00
2024-02-19T04:48:06.270Z,0.00
2024-02-19T04:49:06.256Z,0.00
2024-02-19T04:50:06.259Z,0.00
2024-02-19T04:51:06.150Z,0.00
2024-02-19T04:52:06.290Z,0.00
2024-02-19T04:53:06.145Z,0.00
2024-02-19T04:54:06.123Z,0.00
2024-02-19T04:55:06.212Z,0.00
2024-02-19T04:56:06.115Z,0.00
2024-02-19T04:57:06.103Z,0.00
2024-02-19T04:58:06.175Z,0.00
2024-02-19T04:59:06.068Z,0.00
2024-02-19T05:00:06.069Z,0.00
2024-02-19T05:01:06.160Z,0.00
2024-02-19T05:02:06.315Z,0.00
2024-02-19T05:03:06.017Z,0.00
2024-02-19T05:04:06.063Z,0.00
2024-02-19T05:05:06.058Z,0.00
2024-02-19T05:06:06.016Z,0.00
2024-02-19T05:07:06.022Z,0.00
2024-02-19T05:08:05.996Z,0.00
2024-02-19T05:09:05.955Z,0.00
2024-02-19T05:10:05.964Z,0.00
2024-02-19T05:11:06.033Z,0.00
2024-02-19T05:12:05.919Z,0.00
2024-02-19T05:13:05.947Z,0.00
2024-02-19T05:14:05.918Z,0.00
2024-02-19T05:15:05.894Z,0.00
2024-02-19T05:16:05.908Z,0.00
2024-02-19T05:17:05.861Z,0.00
2024-02-19T05:18:05.974Z,0.00
2024-02-19T05:19:05.926Z,0.00
2024-02-19T05:20:05.844Z,0.00
2024-02-19T05:21:05.827Z,0.00
2024-02-19T05:22:05.869Z,0.00
2024-02-19T05:23:05.800Z,0.00
2024-02-19T05:24:05.783Z,0.00
2024-02-19T05:25:05.776Z,0.00
2024-02-19T05:26:09.452Z,0.00
2024-02-19T05:27:05.777Z,0.00
2024-02-19T05:28:05.784Z,0.00
2024-02-19T05:29:05.737Z,0.00
2024-02-19T05:30:05.755Z,0.00
2024-02-19T05:31:05.798Z,0.00
2024-02-19T05:32:05.709Z,0.00
2024-02-19T05:33:05.999Z,0.00
2024-02-19T05:34:05.787Z,0.00
2024-02-19T05:35:05.779Z,0.00
2024-02-19T05:36:05.647Z,0.00
2024-02-19T05:37:05.695Z,0.00
2024-02-19T05:38:05.628Z,0.00
2024-02-19T05:39:05.612Z,0.00
2024-02-19T05:40:05.619Z,0.00
2024-02-19T05:41:05.591Z,0.00
2024-02-19T05:42:05.586Z,0.00
2024-02-19T05:43:05.629Z,0.00
2024-02-19T05:44:05.565Z,0.00
2024-02-19T05:45:05.547Z,0.00
2024-02-19T05:46:05.614Z,0.00
2024-02-19T05:47:05.530Z,0.00
2024-02-19T05:48:05.616Z,0.00
2024-02-19T05:49:05.565Z,0.00
2024-02-19T05:50:05.613Z,0.00
2024-02-19T05:51:05.477Z,0.00
2024-02-19T05:52:05.538Z,0.00
2024-02-19T05:53:05.470Z,0.00
2024-02-19T05:54:05.456Z,0.00
2024-02-19T05:55:05.486Z,0.00
2024-02-19T05:56:05.420Z,0.00
2024-02-19T05:57:05.416Z,0.00
2024-02-19T05:58:05.443Z,0.00
2024-02-19T05:59:05.617Z,0.00
2024-02-19T06:00:05.391Z,0.00
2024-02-19T06:01:05.506Z,0.00
2024-02-19T06:02:05.651Z,0.00
2024-02-19T06:03:05.342Z,0.00
2024-02-19T06:04:05.346Z,0.00
2024-02-19T06:05:07.305Z,0.00
2024-02-19T06:06:05.471Z,0.00
2024-02-19T06:07:05.408Z,0.00
2024-02-19T06:08:05.285Z,0.00
2024-02-19T06:09:05.290Z,0.00
2024-02-19T06:10:05.299Z,0.00
2024-02-19T06:11:05.286Z,0.00
2024-02-19T06:12:05.248Z,0.00
2024-02-19T06:13:05.292Z,0.00
2024-02-19T06:14:05.226Z,0.00
2024-02-19T06:15:05.208Z,0.00
2024-02-19T06:16:05.335Z,0.00
2024-02-19T06:17:05.217Z,0.00
2024-02-19T06:18:05.321Z,0.00
2024-02-19T06:19:05.273Z,0.00
2024-02-19T06:20:05.226Z,0.00
2024-02-19T06:21:05.154Z,0.00
2024-02-19T06:22:05.137Z,0.00
2024-02-19T06:23:05.116Z,0.00
2024-02-19T06:24:05.103Z,0.00
2024-02-19T06:25:05.190Z,0.00
2024-02-19T06:26:05.098Z,0.00
2024-02-19T06:27:05.082Z,0.00
2024-02-19T06:28:05.113Z,0.00
2024-02-19T06:29:05.089Z,0.00
2024-02-19T06:30:05.068Z,0.00
2024-02-19T06:31:05.088Z,0.00
2024-02-19T06:32:05.025Z,0.00
2024-02-19T06:33:05.046Z,0.00
2024-02-19T06:34:05.349Z,0.00
2024-02-19T06:35:05.078Z,0.00
2024-02-19T06:36:04.965Z,5.62
2024-02-19T06:37:05.039Z,5.62
2024-02-19T06:38:04.942Z,5.62
2024-02-19T06:39:04.947Z,5.62
2024-02-19T06:40:04.998Z,5.62
2024-02-19T06:41:04.906Z,5.62
2024-02-19T06:42:04.897Z,5.62
2024-02-19T06:43:04.992Z,5.62
2024-02-19T06:44:04.877Z,5.62
2024-02-19T06:45:04.872Z,11.25
2024-02-19T06:46:04.929Z,11.25
2024-02-19T06:47:04.887Z,11.25
2024-02-19T06:48:05.250Z,11.25
2024-02-19T06:49:04.895Z,16.88
2024-02-19T06:50:04.959Z,16.88
2024-02-19T06:51:04.815Z,16.88
2024-02-19T06:52:04.840Z,11.25
2024-02-19T06:53:04.779Z,11.25
2024-02-19T06:54:04.779Z,11.25
2024-02-19T06:55:04.802Z,11.25
2024-02-19T06:56:04.942Z,16.88
2024-02-19T06:57:04.741Z,16.88
2024-02-19T06:58:04.774Z,16.88
2024-02-19T06:59:04.716Z,22.50
2024-02-19T07:00:04.705Z,28.12
2024-02-19T07:01:04.802Z,28.12
2024-02-19T07:02:08.075Z,28.12
2024-02-19T07:03:04.732Z,28.12
2024-02-19T07:04:04.739Z,28.12
2024-02-19T07:05:04.951Z,28.12
2024-02-19T07:06:04.670Z,28.12
2024-02-19T07:07:04.672Z,28.12
2024-02-19T07:08:04.633Z,28.12
2024-02-19T07:09:04.603Z,28.12
2024-02-19T07:10:04.911Z,33.75
2024-02-19T07:11:04.902Z,33.75
2024-02-19T07:12:04.551Z,33.75
2024-02-19T07:13:04.616Z,33.75
2024-02-19T07:14:04.568Z,39.38
2024-02-19T07:15:04.556Z,39.38
2024-02-19T07:16:04.553Z,50.62
2024-02-19T07:17:04.499Z,67.50
2024-02-19T07:18:04.583Z,78.75
2024-02-19T07:19:04.585Z,84.38
2024-02-19T07:20:04.550Z,95.62
2024-02-19T07:21:04.454Z,90.00
2024-02-19T07:22:04.677Z,78.75
2024-02-19T07:23:04.445Z,73.12
2024-02-19T07:24:04.428Z,56.25
2024-02-19T07:25:13.432Z,45.00
2024-02-19T07:26:05.495Z,33.75
2024-02-19T07:27:04.382Z,33.75
2024-02-19T07:28:04.409Z,39.38
2024-02-19T07:29:04.367Z,39.38
2024-02-19T07:30:04.360Z,39.38
2024-02-19T07:31:04.402Z,39.38
2024-02-19T07:32:04.331Z,45.00
2024-02-19T07:33:04.501Z,61.88
2024-02-19T07:34:04.501Z,56.25
2024-02-19T07:35:04.328Z,56.25
2024-02-19T07:36:04.305Z,56.25
2024-02-19T07:37:04.336Z,67.50
2024-02-19T07:38:04.293Z,61.88
2024-02-19T07:39:04.258Z,56.25
2024-02-19T07:40:04.317Z,50.62
2024-02-19T07:41:04.224Z,50.62
2024-02-19T07:42:04.214Z,50.62
2024-02-19T07:43:04.290Z,45.00
2024-02-19T07:44:04.205Z,56.25
2024-02-19T07:45:04.202Z,56.25
2024-02-19T07:46:04.274Z,50.62
2024-02-19T07:47:04.152Z,50.62
2024-02-19T07:48:04.238Z,56.25
2024-02-19T07:49:04.221Z,61.88
2024-02-19T07:50:04.211Z,73.12
2024-02-19T07:51:04.115Z,67.50
2024-02-19T07:52:04.240Z,73.12
2024-02-19T07:53:04.087Z,61.88
2024-02-19T07:54:04.107Z,73.12
2024-02-19T07:55:04.133Z,84.38
2024-02-19T07:56:04.049Z,101.25
2024-02-19T07:57:04.041Z,106.88
2024-02-19T07:58:04.059Z,84.38
2024-02-19T07:59:04.031Z,90.00
2024-02-19T08:00:04.014Z,101.25
2024-02-19T08:01:04.968Z,90.00
2024-02-19T08:02:04.271Z,112.50
2024-02-19T08:03:03.982Z,123.75
2024-02-19T08:04:04.299Z,135.00
2024-02-19T08:05:04.479Z,140.62
2024-02-19T08:06:04.015Z,112.50
2024-02-19T08:07:04.059Z,106.88
2024-02-19T08:08:03.939Z,101.25
2024-02-19T08:09:03.916Z,106.88
2024-02-19T08:10:04.091Z,106.88
2024-02-19T08:11:03.882Z,101.25
2024-02-19T08:12:04.070Z,101.25
2024-02-19T08:13:04.080Z,118.12
2024-02-19T08:14:04.035Z,129.38
2024-02-19T08:15:03.857Z,112.50
2024-02-19T08:16:03.954Z,101.25
2024-02-19T08:17:03.821Z,90.00
2024-02-19T08:18:03.925Z,118.12
2024-02-19T08:19:04.032Z,135.00
2024-02-19T08:20:03.920Z,157.50
2024-02-19T08:21:03.772Z,174.38
2024-02-19T08:22:03.813Z,180.00
2024-02-19T08:23:03.754Z,213.75
2024-02-19T08:24:03.756Z,208.12
2024-02-19T08:25:03.777Z,225.00
2024-02-19T08:26:03.762Z,253.12
2024-02-19T08:27:03.703Z,264.38
2024-02-19T08:28:03.712Z,343.12
2024-02-19T08:29:03.678Z,382.50
2024-02-19T08:30:03.672Z,427.50
2024-02-19T08:31:03.701Z,641.25
2024-02-19T08:32:03.654Z,371.25
2024-02-19T08:33:03.708Z,326.25
2024-02-19T08:34:03.708Z,298.12
2024-02-19T08:35:03.759Z,331.88
2024-02-19T08:36:03.623Z,343.12
2024-02-19T08:37:03.661Z,331.88
2024-02-19T08:38:03.598Z,309.38
2024-02-19T08:39:03.587Z,286.88
2024-02-19T08:40:03.617Z,281.25
2024-02-19T08:41:03.559Z,292.50
2024-02-19T08:42:03.609Z,303.75
2024-02-19T08:43:03.692Z,320.62
2024-02-19T08:44:03.533Z,354.38
2024-02-19T08:45:03.520Z,472.50
2024-02-19T08:46:03.553Z,354.38
2024-02-19T08:47:03.508Z,320.62
2024-02-19T08:48:03.498Z,450.00
2024-02-19T08:49:03.626Z,624.38
2024-02-19T08:50:03.590Z,607.50
2024-02-19T08:51:03.449Z,410.62
2024-02-19T08:52:03.458Z,528.75
2024-02-19T08:53:03.406Z,495.00
2024-02-19T08:54:03.399Z,444.38
2024-02-19T08:55:03.505Z,517.50
2024-02-19T08:56:03.394Z,506.25
2024-02-19T08:57:03.360Z,568.12
2024-02-19T08:58:03.447Z,855.00
2024-02-19T08:59:03.345Z,427.50
2024-02-19T09:00:03.335Z,326.25
2024-02-19T09:01:03.497Z,331.88
2024-02-19T09:02:03.481Z,343.12
2024-02-19T09:03:03.292Z,360.00
2024-02-19T09:04:03.363Z,405.00
2024-02-19T09:05:03.314Z,405.00
2024-02-19T09:06:03.358Z,483.75
2024-02-19T09:07:03.420Z,489.38
2024-02-19T09:08:03.238Z,410.62
2024-02-19T09:09:03.229Z,376.88
2024-02-19T09:10:03.271Z,393.75
2024-02-19T09:11:03.229Z,376.88
2024-02-19T09:12:03.202Z,388.12
2024-02-19T09:13:03.234Z,371.25
2024-02-19T09:14:03.197Z,376.88
2024-02-19T09:15:03.164Z,320.62
2024-02-19T09:16:03.238Z,281.25
2024-02-19T09:17:03.143Z,275.62
2024-02-19T09:18:03.232Z,331.88
2024-02-19T09:19:03.242Z,517.50
2024-02-19T09:20:03.262Z,405.00
2024-02-19T09:21:03.111Z,568.12
2024-02-19T09:22:03.170Z,506.25
2024-02-19T09:23:03.089Z,371.25
2024-02-19T09:24:03.133Z,596.25
2024-02-19T09:25:03.111Z,798.75
2024-02-19T09:26:03.045Z,793.12
2024-02-19T09:27:03.026Z,444.38
2024-02-19T09:28:03.077Z,843.75
2024-02-19T09:29:03.017Z,1029.38
2024-02-19T09:30:03.015Z,675.00
2024-02-19T09:31:03.043Z,556.88
2024-02-19T09:32:02.989Z,585.00
2024-02-19T09:33:03.085Z,585.00
2024-02-19T09:34:03.132Z,511.88
2024-02-19T09:35:03.086Z,466.88
2024-02-19T09:36:02.946Z,483.75
2024-02-19T09:37:02.952Z,455.62
2024-02-19T09:38:02.914Z,438.75
2024-02-19T09:39:02.905Z,421.88
2024-02-19T09:40:02.986Z,416.25
2024-02-19T09:41:02.880Z,444.38
2024-02-19T09:42:02.860Z,438.75
2024-02-19T09:43:02.943Z,438.75
2024-02-19T09:44:02.843Z,438.75
2024-02-19T09:45:02.856Z,438.75
2024-02-19T09:46:02.895Z,551.25
2024-02-19T09:47:02.810Z,466.88
2024-02-19T09:48:03.006Z,483.75
2024-02-19T09:49:03.100Z,371.25
2024-02-19T09:50:02.951Z,371.25
2024-02-19T09:51:02.769Z,376.88
2024-02-19T09:52:02.849Z,793.12
2024-02-19T09:53:02.761Z,568.12
2024-02-19T09:54:02.881Z,703.12
2024-02-19T09:55:02.793Z,399.38
2024-02-19T09:56:02.709Z,427.50
2024-02-19T09:57:02.702Z,714.38
2024-02-19T09:58:02.752Z,787.50
2024-02-19T09:59:02.680Z,691.88
2024-02-19T10:00:02.773Z,528.75
2024-02-19T10:01:02.787Z,500.62
2024-02-19T10:02:02.882Z,478.12
2024-02-19T10:03:02.629Z,438.75
2024-02-19T10:04:02.974Z,393.75
2024-02-19T10:05:02.868Z,376.88
2024-02-19T10:06:02.969Z,343.12
2024-02-19T10:07:02.864Z,371.25
2024-02-19T10:08:02.629Z,399.38
2024-02-19T10:09:02.570Z,388.12
2024-02-19T10:10:02.643Z,376.88
2024-02-19T10:11:02.537Z,376.88
2024-02-19T10:12:02.528Z,354.38
2024-02-19T10:13:02.687Z,343.12
2024-02-19T10:14:02.507Z,337.50
2024-02-19T10:15:02.508Z,320.62
2024-02-19T10:16:04.705Z,298.12
2024-02-19T10:17:02.486Z,298.12
2024-02-19T10:18:02.558Z,320.62
2024-02-19T10:19:02.627Z,360.00
2024-02-19T10:20:02.440Z,405.00
2024-02-19T10:21:02.434Z,393.75
2024-02-19T10:22:02.492Z,348.75
2024-02-19T10:23:02.437Z,298.12
2024-02-19T10:24:02.481Z,286.88
2024-02-19T10:25:02.532Z,253.12
2024-02-19T10:26:02.383Z,213.75
2024-02-19T10:27:02.367Z,219.38
2024-02-19T10:28:02.401Z,292.50
2024-02-19T10:29:02.368Z,315.00
2024-02-19T10:30:02.355Z,292.50
2024-02-19T10:31:02.550Z,292.50
2024-02-19T10:32:02.307Z,326.25
2024-02-19T10:33:02.356Z,421.88
2024-02-19T10:34:02.538Z,466.88
2024-02-19T10:35:02.392Z,534.38
2024-02-19T10:36:02.262Z,613.12
2024-02-19T10:37:02.329Z,613.12
2024-02-19T10:38:02.238Z,556.88
2024-02-19T10:39:02.223Z,511.88
2024-02-19T10:40:02.322Z,534.38
2024-02-19T10:41:02.261Z,590.62
2024-02-19T10:42:02.229Z,680.62
2024-02-19T10:43:02.359Z,573.75
2024-02-19T10:44:02.192Z,523.12
2024-02-19T10:45:02.196Z,427.50
2024-02-19T10:46:02.212Z,421.88
2024-02-19T10:47:02.138Z,433.12
2024-02-19T10:48:02.205Z,444.38
2024-02-19T10:49:02.330Z,450.00
2024-02-19T10:50:02.224Z,421.88
2024-02-19T10:51:02.103Z,388.12
2024-02-19T10:52:02.129Z,337.50
2024-02-19T10:53:02.070Z,360.00
2024-02-19T10:54:02.052Z,371.25
2024-02-19T10:55:09.979Z,365.62
2024-02-19T10:56:05.163Z,348.75
2024-02-19T10:57:02.045Z,326.25
2024-02-19T10:58:02.084Z,315.00
2024-02-19T10:59:02.010Z,331.88
2024-02-19T11:00:02.063Z,337.50
2024-02-19T11:01:02.208Z,360.00
2024-02-19T11:02:02.133Z,371.25
2024-02-19T11:03:01.995Z,365.62
2024-02-19T11:04:02.021Z,365.62
2024-02-19T11:05:02.002Z,376.88
2024-02-19T11:06:02.055Z,382.50
2024-02-19T11:07:01.986Z,376.88
2024-02-19T11:08:01.894Z,371.25
2024-02-19T11:09:01.890Z,371.25
2024-02-19T11:10:02.009Z,376.88
2024-02-19T11:11:01.973Z,393.75
2024-02-19T11:12:02.012Z,421.88
2024-02-19T11:13:02.053Z,455.62
2024-02-19T11:14:01.863Z,495.00
2024-02-19T11:15:01.843Z,517.50
2024-02-19T11:16:01.851Z,506.25
2024-02-19T11:17:01.838Z,506.25
2024-02-19T11:18:01.886Z,517.50
2024-02-19T11:19:01.846Z,534.38
2024-02-19T11:20:01.846Z,495.00
2024-02-19T11:21:01.769Z,461.25
2024-02-19T11:22:01.811Z,489.38
2024-02-19T11:23:01.731Z,528.75
2024-02-19T11:24:01.726Z,511.88
2024-02-19T11:25:01.746Z,472.50
2024-02-19T11:26:01.705Z,438.75
2024-02-19T11:27:01.688Z,466.88
2024-02-19T11:28:01.714Z,528.75
2024-02-19T11:29:01.687Z,523.12
2024-02-19T11:30:01.709Z,495.00
2024-02-19T11:31:01.708Z,472.50
2024-02-19T11:32:01.646Z,483.75
2024-02-19T11:33:01.728Z,562.50
2024-02-19T11:34:01.678Z,601.88
2024-02-19T11:35:01.705Z,556.88
2024-02-19T11:36:01.585Z,495.00
2024-02-19T11:37:01.618Z,483.75
2024-02-19T11:38:01.584Z,478.12
2024-02-19T11:39:01.566Z,466.88
2024-02-19T11:40:01.620Z,444.38
2024-02-19T11:41:01.530Z,461.25
2024-02-19T11:42:01.520Z,438.75
2024-02-19T11:43:01.551Z,371.25
2024-02-19T11:44:01.507Z,320.62
2024-02-19T11:45:01.534Z,258.75
2024-02-19T11:46:01.518Z,241.88
2024-02-19T11:47:01.500Z,213.75
2024-02-19T11:48:02.003Z,264.38
2024-02-19T11:49:01.682Z,258.75
2024-02-19T11:50:01.673Z,275.62
2024-02-19T11:51:01.469Z,337.50
2024-02-19T11:52:08.078Z,382.50
2024-02-19T11:53:02.520Z,343.12
2024-02-19T11:54:01.429Z,247.50
2024-02-19T11:55:01.516Z,185.62
2024-02-19T11:56:01.376Z,202.50
2024-02-19T11:57:01.356Z,253.12
2024-02-19T11:58:01.404Z,354.38
2024-02-19T11:59:35.591Z,360.00
2024-02-19T12:00:35.581Z,365.62
2024-02-19T12:01:35.679Z,461.25
2024-02-19T12:02:35.551Z,523.12
2024-02-19T12:03:35.543Z,517.50
2024-02-19T12:04:35.607Z,511.88
2024-02-19T12:05:35.561Z,478.12
2024-02-19T12:06:35.631Z,405.00
2024-02-19T12:07:35.691Z,309.38
2024-02-19T12:08:35.485Z,337.50
2024-02-19T12:09:35.503Z,405.00
2024-02-19T12:10:35.714Z,410.62
2024-02-19T12:11:35.528Z,371.25
2024-02-19T12:12:35.438Z,376.88
2024-02-19T12:13:35.494Z,376.88
2024-02-19T12:14:35.417Z,393.75
2024-02-19T12:15:35.409Z,393.75
2024-02-19T12:16:35.514Z,416.25
2024-02-19T12:17:35.404Z,393.75
2024-02-19T12:18:35.454Z,393.75
2024-02-19T12:19:35.619Z,376.88
2024-02-19T12:20:35.400Z,331.88
2024-02-19T12:21:35.348Z,286.88
2024-02-19T12:22:35.400Z,247.50
2024-02-19T12:23:35.314Z,264.38
2024-02-19T12:24:35.302Z,275.62
2024-02-19T12:25:35.358Z,286.88
2024-02-19T12:26:35.279Z,315.00
2024-02-19T12:27:35.385Z,309.38
2024-02-19T12:28:35.289Z,258.75
2024-02-19T12:29:35.245Z,275.62
2024-02-19T12:30:35.239Z,320.62
2024-02-19T12:31:35.279Z,309.38
2024-02-19T12:32:35.230Z,286.88
2024-02-19T12:33:35.346Z,303.75
2024-02-19T12:34:35.251Z,247.50
2024-02-19T12:35:36.503Z,247.50
2024-02-19T12:36:35.266Z,241.88
2024-02-19T12:37:35.278Z,213.75
2024-02-19T12:38:35.174Z,241.88
2024-02-19T12:39:35.150Z,258.75
2024-02-19T12:40:35.169Z,264.38
2024-02-19T12:41:35.300Z,241.88
2024-02-19T12:42:35.136Z,236.25
2024-02-19T12:43:35.131Z,264.38
2024-02-19T12:44:35.118Z,303.75
2024-02-19T12:45:35.102Z,337.50
2024-02-19T12:46:35.204Z,365.62
2024-02-19T12:47:35.140Z,399.38
2024-02-19T12:48:35.089Z,371.25
2024-02-19T12:49:37.480Z,303.75
2024-02-19T12:50:35.198Z,241.88
2024-02-19T12:51:35.211Z,247.50
2024-02-19T12:52:35.099Z,258.75
2024-02-19T12:53:35.005Z,241.88
2024-02-19T12:54:35.016Z,275.62
2024-02-19T12:55:35.037Z,309.38
2024-02-19T12:56:34.989Z,331.88
2024-02-19T12:57:34.977Z,309.38